Flight Track Log - Related Links

Times and Time Zones

All times are in EDT time to prevent confusion due to time zone crossing. See the GJS6221 flight status page for this flight to view local times or setup timezone preferences in your user account.

Time Position Orientation Groundspeed Altitude Reporting Facility
EDT Latitude Longitude Course Direction KTS MPH feet Rate Location/Type
Thu 01:13:37 PM 40.8000 -73.8667 37° Northeast 144 166 1,100  Level New York TRACON
Thu 01:14:37 PM 40.8333 -73.8333 37° Northeast 205 236 3,400 2,476 Climbing New York TRACON
Thu 01:15:43 PM 40.9000 -73.7500 43° Northeast 266 306 6,300 2,750 Climbing New York TRACON
Thu 01:16:37 PM 40.9500 -73.6833 45° Northeast 291 335 8,900 2,150 Climbing New York TRACON
Thu 01:17:43 PM 41.0000 -73.5833 56° Northeast 351 404 10,600 1,908 Climbing New York TRACON
Thu 01:19:52 PM 41.2078 -73.4775 21° North 383 441 15,100 1,905 Climbing Boston Center
Thu 01:20:52 PM 41.3019 -73.4211 24° Northeast 394 453 16,600 1,750 Climbing Boston Center
Thu 01:21:52 PM 41.4236 -73.3481 24° Northeast 424 488 18,600 1,850 Climbing Boston Center
Thu 01:22:52 PM 41.5222 -73.2581 34° Northeast 437 503 20,300 1,800 Climbing Boston Center
Thu 01:23:52 PM 41.6308 -73.2011 21° North 437 503 22,200 1,800 Climbing Boston Center
Thu 01:24:52 PM 41.7539 -73.2136 356° North 422 486 23,900 1,650 Climbing Boston Center
Thu 01:25:52 PM 41.8786 -73.2264 356° North 428 493 25,500 1,500 Climbing Boston Center
Thu 01:26:52 PM 42.0058 -73.2392 356° North 442 509 26,900 750 Climbing Boston Center
Thu 01:27:52 PM 42.1494 -73.2550 355° North 455 524 27,000 50 Climbing Boston Center
Thu 01:28:52 PM 42.2889 -73.2708 355° North 472 543 27,000  Level Boston Center
Thu 01:29:52 PM 42.4119 -73.2781 358° North 487 560 27,000  Level Boston Center
Thu 01:30:52 PM 42.5472 -73.2911 356° North 487 560 27,000  Level Boston Center
Thu 01:31:52 PM 42.6950 -73.3158 353° North 487 560 27,000  Level Boston Center
Thu 01:32:52 PM 42.8347 -73.3292 356° North 492 566 27,000  Level Boston Center
Thu 01:33:52 PM 42.9678 -73.3422 356° North 492 566 27,000  Level Boston Center
Thu 01:34:52 PM 43.1056 -73.3331 North 492 566 27,000 -550 Level Boston Center
Thu 01:35:52 PM 43.2453 -73.3122 North 498 573 25,900 -2,000 Descending Boston Center
Thu 01:36:52 PM 43.3831 -73.2972 North 498 573 23,000 -2,850 Descending Boston Center
Thu 01:37:52 PM 43.4956 -73.2817 North 480 552 20,200 -2,800 Descending Boston Center
Thu 01:38:52 PM 43.6186 -73.2661 North 459 528 17,400 -2,850 Descending Boston Center
Thu 01:39:52 PM 43.7417 -73.2506 North 414 476 14,500 -2,500 Descending Boston Center
Thu 01:40:52 PM 43.8461 -73.2375 North 388 447 12,400 -1,591 Descending Boston Center
Thu 01:42:04 PM 43.9439 -73.2244 North 360 414 11,000 -1,091 Descending Boston Center
Thu 01:43:04 PM 44.0442 -73.1997 10° North 322 371 10,000 -1,400 Descending Boston Center
Thu 01:44:04 PM 44.1153 -73.1456 29° Northeast 290 334 8,200 -1,600 Descending Boston Center
Thu 01:45:04 PM 44.1761 -73.1031 27° Northeast 272 313 6,800 -1,250 Descending Boston Center
Thu 01:46:04 PM 44.2389 -73.0717 20° North 245 282 5,700 -1,350 Descending Boston Center
Thu 01:47:04 PM 44.2972 -73.0492 15° North 220 253 4,100 -1,050 Descending Boston Center
Thu 01:48:04 PM 44.3514 -73.0497 360° North 203 234 3,600 -1,000 Descending Boston Center
Thu 01:49:04 PM 44.4033 -73.0678 346° North 190 219 2,100 -1,100 Descending Boston Center
Thu 01:50:04 PM 44.4367 -73.0972 328° Northwest 160 184 1,400 -800 Descending Boston Center
Thu 01:51:04 PM 44.4614 -73.1353 312° West 129 148 500 -550 Descending Boston Center
Thu 01:52:04 PM 44.4758 -73.1586 311° West 117 135 300 -100 Descending Boston Center
Thu 01:53:04 PM 44.4717 -73.1586 180° South 55 63 300  Level Boston Center
Thu 01:54:04 PM 44.4675 -73.1528 135° Southeast 10 12 300  Level Boston Center
Thu 01:55:04 PM 44.4653 -73.1586 242° Southwest 10 12 300  Level Boston Center

Login

Don't have an account? Register now (free) for customized features, flight alerts, and more!